Time;durP1;ratioP1;P1;durP2;ratioP2;P2;SDS_P1;SDS_P2;PMS_P1;PMS_P2;Temp;Humidity;BMP_temperature;BMP_pressure;BME280_temperature;BME280_humidity;BME280_pressure;Samples;Min_cycle;Max_cycle;Signal;HPM_P1;HPM_P2
2023/12/22 00:01:48;;;;;;;5.10;1.40;;;;;;;;;;5036488;28;20220;-68
2023/12/22 00:04:16;;;;;;;4.70;1.80;;;;;;;;;;5034170;28;20208;-63
2023/12/22 00:06:43;;;;;;;5.30;1.70;;;;;;;;;;5035588;28;20207;-62
2023/12/22 00:09:10;;;;;;;4.60;1.90;;;;;;;;;;5035673;28;20238;-63
2023/12/22 00:11:37;;;;;;;5.77;1.73;;;;;;;;;;5038179;28;20298;-62
2023/12/22 00:14:05;;;;;;;3.63;1.53;;;;;;;;;;5036640;28;20195;-62
2023/12/22 00:16:33;;;;;;;4.47;1.90;;;;;;;;;;5035685;28;20200;-63
2023/12/22 00:19:00;;;;;;;4.47;1.60;;;;;;;;;;5033352;28;20193;-62
2023/12/22 00:21:27;;;;;;;5.47;1.70;;;;;;;;;;5031958;28;20211;-62
2023/12/22 00:23:54;;;;;;;6.33;1.40;;;;;;;;;;5035292;28;20214;-63
2023/12/22 00:26:21;;;;;;;6.00;1.80;;;;;;;;;;5036228;28;20251;-63
2023/12/22 00:28:49;;;;;;;4.50;1.80;;;;;;;;;;5033435;28;20228;-62
2023/12/22 00:31:18;;;;;;;5.60;1.67;;;;;;;;;;5034317;28;20208;-63
2023/12/22 00:33:45;;;;;;;5.33;1.90;;;;;;;;;;5035493;28;20277;-63
2023/12/22 00:36:12;;;;;;;6.70;1.83;;;;;;;;;;5033083;28;20243;-62
2023/12/22 00:38:39;;;;;;;4.13;1.43;;;;;;;;;;5031284;28;20193;-62
2023/12/22 00:41:06;;;;;;;7.30;1.67;;;;;;;;;;5031407;28;20204;-62
2023/12/22 00:43:33;;;;;;;2.43;1.10;;;;;;;;;;5038484;28;20207;-63
2023/12/22 00:46:00;;;;;;;7.50;1.83;;;;;;;;;;5030975;28;20199;-63
2023/12/22 00:48:29;;;;;;;4.97;1.63;;;;;;;;;;5035806;28;20228;-62
2023/12/22 00:50:56;;;;;;;4.37;1.80;;;;;;;;;;5028196;28;20200;-63
2023/12/22 00:53:23;;;;;;;5.73;1.70;;;;;;;;;;5034528;28;20210;-62
2023/12/22 00:55:50;;;;;;;4.00;1.60;;;;;;;;;;5028294;28;20203;-63
2023/12/22 00:58:17;;;;;;;7.37;2.27;;;;;;;;;;5036111;28;20215;-63
2023/12/22 01:00:44;;;;;;;5.17;1.60;;;;;;;;;;5036476;28;20207;-62
2023/12/22 01:03:12;;;;;;;6.20;1.70;;;;;;;;;;5027925;28;20200;-62
2023/12/22 01:05:41;;;;;;;6.33;2.07;;;;;;;;;;5036141;28;20204;-62
2023/12/22 01:08:08;;;;;;;8.60;2.00;;;;;;;;;;5037636;28;20270;-62
2023/12/22 01:10:35;;;;;;;4.60;1.73;;;;;;;;;;5032449;28;20196;-62
2023/12/22 01:13:02;;;;;;;6.50;2.13;;;;;;;;;;5028696;28;20219;-67
2023/12/22 01:15:29;;;;;;;8.23;2.20;;;;;;;;;;5034976;28;20271;-68
2023/12/22 01:17:57;;;;;;;4.47;1.77;;;;;;;;;;5031856;28;20222;-67
2023/12/22 01:20:24;;;;;;;6.90;1.93;;;;;;;;;;5034337;28;20210;-69
2023/12/22 01:22:52;;;;;;;8.33;2.30;;;;;;;;;;5039025;28;20206;-67
2023/12/22 01:25:19;;;;;;;8.23;2.00;;;;;;;;;;5025997;28;20213;-68
2023/12/22 01:27:47;;;;;;;6.53;2.07;;;;;;;;;;5027590;28;20204;-68
2023/12/22 01:30:14;;;;;;;7.27;2.03;;;;;;;;;;5028514;28;20233;-68
2023/12/22 01:32:41;;;;;;;6.40;1.80;;;;;;;;;;5030346;28;20204;-68
2023/12/22 01:35:10;;;;;;;6.73;1.87;;;;;;;;;;5027106;28;20237;-67
2023/12/22 01:37:37;;;;;;;6.90;2.10;;;;;;;;;;5030540;28;20196;-68
2023/12/22 01:40:06;;;;;;;7.53;1.77;;;;;;;;;;5030709;28;20200;-67
2023/12/22 01:42:33;;;;;;;4.53;1.50;;;;;;;;;;5029734;28;20197;-67
2023/12/22 01:45:01;;;;;;;4.43;1.43;;;;;;;;;;5031571;28;20204;-68
2023/12/22 01:47:28;;;;;;;5.20;1.77;;;;;;;;;;5032258;28;20205;-67
2023/12/22 01:49:55;;;;;;;3.87;1.37;;;;;;;;;;5030656;28;20221;-68
2023/12/22 01:52:23;;;;;;;7.70;2.13;;;;;;;;;;5021561;28;20205;-67
2023/12/22 01:54:51;;;;;;;10.13;2.40;;;;;;;;;;5031718;28;20200;-67
2023/12/22 01:57:20;;;;;;;5.37;1.90;;;;;;;;;;5029260;28;20208;-68
2023/12/22 01:59:48;;;;;;;8.63;2.03;;;;;;;;;;5027241;28;20203;-68
2023/12/22 02:02:15;;;;;;;7.47;1.93;;;;;;;;;;5030208;28;20199;-67
2023/12/22 02:04:42;;;;;;;6.83;2.00;;;;;;;;;;5032096;28;20192;-67
2023/12/22 02:07:10;;;;;;;6.67;1.77;;;;;;;;;;5031224;28;20214;-68
2023/12/22 02:09:38;;;;;;;4.33;1.70;;;;;;;;;;5026467;28;20681;-69
2023/12/22 02:12:05;;;;;;;6.10;2.27;;;;;;;;;;5026891;28;20249;-68
2023/12/22 02:14:34;;;;;;;6.60;1.87;;;;;;;;;;5030227;28;20204;-68
2023/12/22 02:17:04;;;;;;;5.53;1.93;;;;;;;;;;5031408;28;20204;-68
2023/12/22 02:19:42;;;;;;;5.17;1.73;;;;;;;;;;5030679;28;20229;-68
2023/12/22 02:22:09;;;;;;;4.77;1.60;;;;;;;;;;5028791;28;20212;-68
2023/12/22 02:24:38;;;;;;;5.17;1.70;;;;;;;;;;5029127;28;20200;-67
2023/12/22 02:27:06;;;;;;;7.30;1.67;;;;;;;;;;5028223;28;20204;-68
2023/12/22 02:29:34;;;;;;;5.77;1.70;;;;;;;;;;5030404;28;20231;-67
2023/12/22 02:32:04;;;;;;;6.77;1.80;;;;;;;;;;5029627;28;20223;-68
2023/12/22 02:34:32;;;;;;;4.47;1.30;;;;;;;;;;5025841;28;20230;-67
2023/12/22 02:37:00;;;;;;;3.47;1.40;;;;;;;;;;5033822;28;20206;-68
2023/12/22 02:39:27;;;;;;;4.10;1.50;;;;;;;;;;5027559;28;20204;-68
2023/12/22 02:41:56;;;;;;;3.20;1.33;;;;;;;;;;5029195;28;20200;-68
2023/12/22 02:44:23;;;;;;;2.40;1.03;;;;;;;;;;5028153;28;20204;-67
2023/12/22 02:46:50;;;;;;;3.63;1.10;;;;;;;;;;5033507;28;20202;-67
2023/12/22 02:49:18;;;;;;;4.60;1.30;;;;;;;;;;5028844;28;20236;-67
2023/12/22 02:51:45;;;;;;;3.00;1.13;;;;;;;;;;5031012;28;20206;-68
2023/12/22 02:54:12;;;;;;;3.47;1.20;;;;;;;;;;5028167;28;20207;-67
2023/12/22 02:56:42;;;;;;;3.10;1.20;;;;;;;;;;5030384;28;20204;-68
2023/12/22 02:59:11;;;;;;;3.30;1.30;;;;;;;;;;5030670;28;20278;-68
2023/12/22 03:01:38;;;;;;;4.40;1.30;;;;;;;;;;5027429;28;20202;-68
2023/12/22 03:04:05;;;;;;;3.73;1.07;;;;;;;;;;5031665;28;20208;-68
2023/12/22 03:06:32;;;;;;;5.33;1.10;;;;;;;;;;5035062;28;20203;-68
2023/12/22 03:08:59;;;;;;;1.30;0.80;;;;;;;;;;5030348;28;20227;-68
2023/12/22 03:11:26;;;;;;;1.17;0.63;;;;;;;;;;5031378;28;20192;-67
2023/12/22 03:13:53;;;;;;;2.27;0.80;;;;;;;;;;5029863;28;20196;-67
2023/12/22 03:16:22;;;;;;;1.60;0.93;;;;;;;;;;5030563;28;20227;-67
2023/12/22 03:18:49;;;;;;;1.90;1.20;;;;;;;;;;5027155;28;20227;-68
2023/12/22 03:21:18;;;;;;;2.50;1.10;;;;;;;;;;5033674;28;20210;-67
2023/12/22 03:23:45;;;;;;;1.73;1.20;;;;;;;;;;5034124;28;20211;-68
2023/12/22 03:26:12;;;;;;;4.33;1.00;;;;;;;;;;5027770;28;20238;-68
2023/12/22 03:28:40;;;;;;;2.23;1.27;;;;;;;;;;5027027;28;20224;-68
2023/12/22 03:31:07;;;;;;;3.57;1.30;;;;;;;;;;5026732;28;20203;-67
2023/12/22 03:33:36;;;;;;;4.07;1.37;;;;;;;;;;5034901;28;20211;-62
2023/12/22 03:36:03;;;;;;;4.43;1.53;;;;;;;;;;5034029;28;20240;-62
2023/12/22 03:38:30;;;;;;;4.17;1.63;;;;;;;;;;5033496;28;20212;-63
2023/12/22 03:40:57;;;;;;;5.33;1.60;;;;;;;;;;5033936;28;20208;-63
2023/12/22 03:43:24;;;;;;;5.80;1.77;;;;;;;;;;5030510;28;20200;-64
2023/12/22 03:45:51;;;;;;;6.07;2.00;;;;;;;;;;5029037;28;20209;-63
2023/12/22 03:48:18;;;;;;;5.73;1.80;;;;;;;;;;5030618;28;20200;-63
2023/12/22 03:50:47;;;;;;;10.53;2.47;;;;;;;;;;5034899;28;20210;-63
2023/12/22 03:53:14;;;;;;;6.63;2.07;;;;;;;;;;5028223;28;20205;-63
2023/12/22 03:55:41;;;;;;;4.70;1.80;;;;;;;;;;5031550;28;20204;-63
2023/12/22 03:58:08;;;;;;;5.97;2.20;;;;;;;;;;5033334;28;20200;-63
2023/12/22 04:00:35;;;;;;;4.40;1.67;;;;;;;;;;5037064;28;20226;-63
2023/12/22 04:03:02;;;;;;;4.93;1.57;;;;;;;;;;5031986;28;20219;-62
2023/12/22 04:05:29;;;;;;;8.63;2.13;;;;;;;;;;5035266;28;20216;-62
2023/12/22 04:07:58;;;;;;;7.97;2.07;;;;;;;;;;5033178;28;20204;-63
2023/12/22 04:10:25;;;;;;;8.67;2.10;;;;;;;;;;5031126;28;20216;-63
2023/12/22 04:12:52;;;;;;;8.40;2.10;;;;;;;;;;5036282;28;20207;-62
2023/12/22 04:15:19;;;;;;;9.00;2.23;;;;;;;;;;5041176;28;20204;-62
2023/12/22 04:17:46;;;;;;;7.63;2.30;;;;;;;;;;5031290;28;20204;-63
2023/12/22 04:20:14;;;;;;;6.17;2.00;;;;;;;;;;5038895;28;20468;-62
2023/12/22 04:22:41;;;;;;;7.27;1.90;;;;;;;;;;5036550;28;20254;-62
2023/12/22 04:25:10;;;;;;;6.67;2.23;;;;;;;;;;5034567;28;20203;-63
2023/12/22 04:27:37;;;;;;;11.80;2.60;;;;;;;;;;5032553;28;20208;-63
2023/12/22 04:30:04;;;;;;;5.17;2.13;;;;;;;;;;5039670;28;20232;-63
2023/12/22 04:32:31;;;;;;;5.33;2.13;;;;;;;;;;5036598;28;20288;-62
2023/12/22 04:34:58;;;;;;;10.07;2.20;;;;;;;;;;5034435;28;20235;-63
2023/12/22 04:37:25;;;;;;;9.53;2.53;;;;;;;;;;5040375;28;20215;-62
2023/12/22 04:39:52;;;;;;;5.87;1.83;;;;;;;;;;5035817;28;20206;-63
2023/12/22 04:42:21;;;;;;;7.77;2.40;;;;;;;;;;5038765;28;20211;-63
2023/12/22 04:44:48;;;;;;;6.87;2.13;;;;;;;;;;5033596;28;20200;-62
2023/12/22 04:47:16;;;;;;;7.27;2.43;;;;;;;;;;5033382;28;20200;-63
2023/12/22 04:49:43;;;;;;;5.83;1.87;;;;;;;;;;5032612;28;20224;-63
2023/12/22 04:52:10;;;;;;;6.60;2.20;;;;;;;;;;5033846;28;20487;-63
2023/12/22 04:54:37;;;;;;;9.97;2.30;;;;;;;;;;5032358;28;20208;-63
2023/12/22 04:57:04;;;;;;;6.03;1.80;;;;;;;;;;5036175;28;20210;-63
2023/12/22 04:59:33;;;;;;;4.57;2.00;;;;;;;;;;5035210;28;20197;-62
2023/12/22 05:02:00;;;;;;;4.90;2.00;;;;;;;;;;5029963;28;20208;-63
2023/12/22 05:04:27;;;;;;;6.50;1.87;;;;;;;;;;5029841;28;20204;-63
2023/12/22 05:06:54;;;;;;;4.17;1.33;;;;;;;;;;5034077;28;20205;-62
2023/12/22 05:09:22;;;;;;;7.03;1.80;;;;;;;;;;5033890;28;20224;-62
2023/12/22 05:11:49;;;;;;;3.13;1.33;;;;;;;;;;5032604;28;20236;-62
2023/12/22 05:14:16;;;;;;;1.90;1.10;;;;;;;;;;5035982;28;20234;-62
2023/12/22 05:16:45;;;;;;;3.63;1.60;;;;;;;;;;5038878;28;20210;-63
2023/12/22 05:19:12;;;;;;;4.10;1.20;;;;;;;;;;5030216;28;20211;-63
2023/12/22 05:21:39;;;;;;;2.47;0.80;;;;;;;;;;5032275;28;20213;-63
2023/12/22 05:24:06;;;;;;;3.07;1.10;;;;;;;;;;5023975;28;20204;-62
2023/12/22 05:26:33;;;;;;;3.93;1.10;;;;;;;;;;5029819;28;20205;-63
2023/12/22 05:29:00;;;;;;;1.23;0.70;;;;;;;;;;5029795;28;20207;-63
2023/12/22 05:31:28;;;;;;;2.83;1.40;;;;;;;;;;5034602;28;20208;-61
2023/12/22 05:33:56;;;;;;;1.67;0.50;;;;;;;;;;5030805;28;20231;-63
2023/12/22 05:36:25;;;;;;;1.43;0.50;;;;;;;;;;5028407;28;20208;-63
2023/12/22 05:38:52;;;;;;;1.90;0.90;;;;;;;;;;5032678;28;20224;-63
2023/12/22 05:41:19;;;;;;;2.73;0.80;;;;;;;;;;5030237;28;20203;-63
2023/12/22 05:43:46;;;;;;;1.90;0.67;;;;;;;;;;5035656;28;20203;-62
2023/12/22 05:46:13;;;;;;;0.30;0.30;;;;;;;;;;5033532;28;20213;-62
2023/12/22 05:48:40;;;;;;;2.17;0.60;;;;;;;;;;5037423;28;20204;-62
2023/12/22 05:51:13;;;;;;;2.47;0.90;;;;;;;;;;5031831;28;20231;-62
2023/12/22 05:53:40;;;;;;;1.63;0.63;;;;;;;;;;5029050;28;20200;-68
2023/12/22 05:56:18;;;;;;;1.37;0.60;;;;;;;;;;5028996;28;20229;-70
2023/12/22 05:58:45;;;;;;;0.87;0.60;;;;;;;;;;5027395;28;20220;-67
2023/12/22 06:01:15;;;;;;;1.53;0.73;;;;;;;;;;5025884;28;20200;-67
2023/12/22 06:03:42;;;;;;;1.80;0.67;;;;;;;;;;5027003;28;20196;-68
2023/12/22 06:06:11;;;;;;;0.77;0.70;;;;;;;;;;5026759;28;20211;-68
2023/12/22 06:08:38;;;;;;;1.77;0.90;;;;;;;;;;5029211;28;20196;-68
2023/12/22 06:11:05;;;;;;;1.13;0.50;;;;;;;;;;5029039;28;20240;-68
2023/12/22 06:13:33;;;;;;;1.30;0.70;;;;;;;;;;5032936;28;20208;-68
2023/12/22 06:16:00;;;;;;;1.73;0.60;;;;;;;;;;5030209;28;20677;-69
2023/12/22 06:18:27;;;;;;;2.60;0.80;;;;;;;;;;5028431;28;20306;-67
2023/12/22 06:20:54;;;;;;;1.00;0.73;;;;;;;;;;5030721;28;20239;-68
2023/12/22 06:23:23;;;;;;;1.60;0.80;;;;;;;;;;5026111;28;20266;-67
2023/12/22 06:25:50;;;;;;;1.37;0.87;;;;;;;;;;5022339;28;20215;-67
2023/12/22 06:28:17;;;;;;;3.70;1.00;;;;;;;;;;5025979;28;20225;-68
2023/12/22 06:30:46;;;;;;;2.47;0.80;;;;;;;;;;5033750;28;20208;-68
2023/12/22 06:33:14;;;;;;;2.73;0.93;;;;;;;;;;5031934;28;20215;-67
2023/12/22 06:35:41;;;;;;;3.90;1.30;;;;;;;;;;5026609;28;20236;-68
2023/12/22 06:38:11;;;;;;;3.70;1.10;;;;;;;;;;5030299;28;20228;-67
2023/12/22 06:40:39;;;;;;;3.70;1.60;;;;;;;;;;5028961;28;20199;-67
2023/12/22 06:43:06;;;;;;;4.73;1.60;;;;;;;;;;5026218;28;20203;-68
2023/12/22 06:45:33;;;;;;;5.03;1.40;;;;;;;;;;5021594;28;20204;-69
2023/12/22 06:48:01;;;;;;;6.00;2.13;;;;;;;;;;5029998;28;20212;-67
2023/12/22 06:50:28;;;;;;;6.13;1.60;;;;;;;;;;5033020;28;20230;-67
2023/12/22 06:52:55;;;;;;;6.97;1.97;;;;;;;;;;5029581;28;20215;-67
2023/12/22 06:55:22;;;;;;;8.40;1.97;;;;;;;;;;5022360;28;20200;-68
2023/12/22 06:57:51;;;;;;;6.90;2.27;;;;;;;;;;5024602;28;20223;-67
2023/12/22 07:00:18;;;;;;;10.60;2.30;;;;;;;;;;5026973;28;20196;-68
2023/12/22 07:02:46;;;;;;;6.83;2.17;;;;;;;;;;5027047;28;20258;-69
2023/12/22 07:05:34;;;;;;;8.97;2.50;;;;;;;;;;5029061;28;20204;-67
2023/12/22 07:08:01;;;;;;;9.53;2.67;;;;;;;;;;5035498;28;20200;-68
2023/12/22 07:10:28;;;;;;;7.83;2.20;;;;;;;;;;5031076;28;20219;-68
2023/12/22 07:12:56;;;;;;;7.23;2.37;;;;;;;;;;5029143;28;20204;-68
2023/12/22 07:15:23;;;;;;;12.17;2.60;;;;;;;;;;5026480;28;20208;-68
2023/12/22 07:17:50;;;;;;;11.50;2.90;;;;;;;;;;5025800;28;20210;-67
2023/12/22 07:20:17;;;;;;;9.77;2.80;;;;;;;;;;5031688;28;20204;-68
2023/12/22 07:22:46;;;;;;;8.13;2.73;;;;;;;;;;5031890;28;20218;-67
2023/12/22 07:25:13;;;;;;;10.43;2.50;;;;;;;;;;5025557;28;20208;-67
2023/12/22 07:27:40;;;;;;;10.07;2.93;;;;;;;;;;5025707;28;20211;-67
2023/12/22 07:30:11;;;;;;;14.33;3.63;;;;;;;;;;5026304;28;20250;-68
2023/12/22 07:32:38;;;;;;;14.37;3.60;;;;;;;;;;5032415;28;20233;-68
2023/12/22 07:35:06;;;;;;;13.40;3.50;;;;;;;;;;5031895;28;20232;-67
2023/12/22 07:37:36;;;;;;;13.83;3.47;;;;;;;;;;5028643;28;20211;-67
2023/12/22 07:40:04;;;;;;;14.40;3.20;;;;;;;;;;5025852;28;20207;-67
2023/12/22 07:42:31;;;;;;;13.53;3.70;;;;;;;;;;5028992;28;20204;-68
2023/12/22 07:44:58;;;;;;;16.20;3.57;;;;;;;;;;5029505;28;20204;-67
2023/12/22 07:47:27;;;;;;;12.30;2.97;;;;;;;;;;5028327;28;20200;-67
2023/12/22 07:49:54;;;;;;;16.53;3.83;;;;;;;;;;5030634;28;20201;-67
2023/12/22 07:52:21;;;;;;;13.97;3.43;;;;;;;;;;5033916;28;20211;-67
2023/12/22 07:54:48;;;;;;;12.50;3.37;;;;;;;;;;5033253;28;20204;-68
2023/12/22 07:57:15;;;;;;;14.80;4.10;;;;;;;;;;5038751;28;20258;-68
2023/12/22 07:59:42;;;;;;;11.50;3.33;;;;;;;;;;5040948;28;20283;-68
2023/12/22 08:02:10;;;;;;;16.47;3.70;;;;;;;;;;5038065;28;20267;-68
2023/12/22 08:04:41;;;;;;;12.13;3.70;;;;;;;;;;5037816;28;20228;-68
2023/12/22 08:07:08;;;;;;;16.80;3.33;;;;;;;;;;5036956;28;20211;-67
2023/12/22 08:09:35;;;;;;;14.53;4.03;;;;;;;;;;5034843;28;20287;-68
2023/12/22 08:12:02;;;;;;;18.50;4.03;;;;;;;;;;5036245;28;20227;-67
2023/12/22 08:14:29;;;;;;;13.60;3.47;;;;;;;;;;5041250;28;20212;-67
2023/12/22 08:16:56;;;;;;;15.43;4.00;;;;;;;;;;5047949;28;20619;-66
2023/12/22 08:19:23;;;;;;;15.07;3.70;;;;;;;;;;5040288;28;20247;-68
2023/12/22 08:21:53;;;;;;;15.47;3.53;;;;;;;;;;5033951;28;20200;-68
2023/12/22 08:24:21;;;;;;;17.97;4.10;;;;;;;;;;5033828;28;20200;-67
2023/12/22 08:26:48;;;;;;;12.43;3.60;;;;;;;;;;5034557;28;20239;-68
2023/12/22 08:29:15;;;;;;;15.83;3.87;;;;;;;;;;5037618;28;20206;-68
2023/12/22 08:31:43;;;;;;;14.10;3.90;;;;;;;;;;5033565;28;20220;-68
2023/12/22 08:34:10;;;;;;;19.10;4.23;;;;;;;;;;5038583;28;20235;-67
2023/12/22 08:36:37;;;;;;;16.63;4.07;;;;;;;;;;5036044;28;20206;-66
2023/12/22 08:39:06;;;;;;;12.93;3.07;;;;;;;;;;5034562;28;20205;-68
2023/12/22 08:41:36;;;;;;;17.97;4.33;;;;;;;;;;5034400;28;20421;-68
2023/12/22 08:44:03;;;;;;;12.67;3.83;;;;;;;;;;5041599;28;20203;-68
2023/12/22 08:46:30;;;;;;;16.10;3.73;;;;;;;;;;5041540;28;20204;-68
2023/12/22 08:48:59;;;;;;;16.13;3.87;;;;;;;;;;5041574;28;20203;-68
2023/12/22 08:51:26;;;;;;;18.67;3.90;;;;;;;;;;5035730;28;20227;-67
2023/12/22 08:53:54;;;;;;;10.63;3.23;;;;;;;;;;5032836;28;20200;-67
2023/12/22 08:56:23;;;;;;;14.10;3.73;;;;;;;;;;5026261;28;20203;-68
2023/12/22 08:58:51;;;;;;;14.43;3.70;;;;;;;;;;5035742;28;20200;-66
2023/12/22 09:01:18;;;;;;;12.80;3.50;;;;;;;;;;5033854;28;20204;-67
2023/12/22 09:03:46;;;;;;;13.63;3.33;;;;;;;;;;5034833;28;20211;-67
2023/12/22 09:06:15;;;;;;;12.27;3.63;;;;;;;;;;5029327;28;20503;-68
2023/12/22 09:08:42;;;;;;;10.37;3.40;;;;;;;;;;5027296;28;20210;-67
2023/12/22 09:11:10;;;;;;;15.07;3.43;;;;;;;;;;5033850;28;20222;-68
2023/12/22 09:13:38;;;;;;;15.20;3.43;;;;;;;;;;5032256;28;20295;-67
2023/12/22 09:16:05;;;;;;;13.97;3.20;;;;;;;;;;5028650;28;20276;-67
2023/12/22 09:18:33;;;;;;;12.90;3.33;;;;;;;;;;5029916;28;20211;-67
2023/12/22 09:21:00;;;;;;;14.97;3.37;;;;;;;;;;5031127;28;20210;-67
2023/12/22 09:23:27;;;;;;;12.63;3.13;;;;;;;;;;5033567;28;20204;-68
2023/12/22 09:25:54;;;;;;;12.27;3.23;;;;;;;;;;5031146;28;20216;-68
2023/12/22 09:28:21;;;;;;;11.23;2.63;;;;;;;;;;5029747;28;20214;-67
2023/12/22 09:30:49;;;;;;;10.67;2.60;;;;;;;;;;5027778;28;20226;-67
2023/12/22 09:33:17;;;;;;;12.73;3.10;;;;;;;;;;5025042;28;20215;-67
2023/12/22 09:35:44;;;;;;;12.20;3.40;;;;;;;;;;5031720;28;20305;-67
2023/12/22 09:38:12;;;;;;;11.87;3.30;;;;;;;;;;5030035;28;20212;-68
2023/12/22 09:40:39;;;;;;;7.50;2.43;;;;;;;;;;5035104;28;20200;-67
2023/12/22 09:43:07;;;;;;;11.77;2.93;;;;;;;;;;5036836;28;20204;-67
2023/12/22 09:45:34;;;;;;;10.13;3.00;;;;;;;;;;5031858;28;20204;-66
2023/12/22 09:48:03;;;;;;;9.27;2.60;;;;;;;;;;5027015;28;21307;-67
2023/12/22 09:50:31;;;;;;;9.87;2.43;;;;;;;;;;5032392;28;20200;-66
2023/12/22 09:52:59;;;;;;;9.80;2.40;;;;;;;;;;5020175;28;20196;-67
2023/12/22 09:55:27;;;;;;;7.83;2.70;;;;;;;;;;5034046;28;20216;-67
2023/12/22 09:57:54;;;;;;;9.43;2.63;;;;;;;;;;5030155;28;20243;-67
2023/12/22 10:00:23;;;;;;;9.33;2.27;;;;;;;;;;5027990;28;20211;-67
2023/12/22 10:02:50;;;;;;;6.77;2.10;;;;;;;;;;5028963;28;20200;-66
2023/12/22 10:05:18;;;;;;;7.23;1.80;;;;;;;;;;5029158;28;20255;-68
2023/12/22 10:07:46;;;;;;;5.27;2.13;;;;;;;;;;5029408;28;20206;-67
2023/12/22 10:10:14;;;;;;;5.27;1.90;;;;;;;;;;5031743;28;20208;-67
2023/12/22 10:12:41;;;;;;;8.13;2.37;;;;;;;;;;5031197;28;20323;-67
2023/12/22 10:15:10;;;;;;;6.53;2.20;;;;;;;;;;5032435;28;20204;-67
2023/12/22 10:17:37;;;;;;;4.03;1.57;;;;;;;;;;5031306;28;20587;-68
2023/12/22 10:20:05;;;;;;;5.83;1.57;;;;;;;;;;5031607;28;20296;-67
2023/12/22 10:22:34;;;;;;;5.60;1.77;;;;;;;;;;5031798;28;20231;-67
2023/12/22 10:25:02;;;;;;;2.60;1.33;;;;;;;;;;5030281;28;20212;-68
2023/12/22 10:27:31;;;;;;;4.90;1.63;;;;;;;;;;5037916;28;20211;-69
2023/12/22 10:29:59;;;;;;;3.23;1.10;;;;;;;;;;5036190;28;20289;-67
2023/12/22 10:32:27;;;;;;;2.37;1.10;;;;;;;;;;5033221;28;20288;-68
2023/12/22 10:34:54;;;;;;;4.50;1.50;;;;;;;;;;5030759;28;20239;-66
2023/12/22 10:37:23;;;;;;;3.00;1.00;;;;;;;;;;5030807;28;20211;-67
2023/12/22 10:39:53;;;;;;;2.77;1.10;;;;;;;;;;5021374;28;20210;-68
2023/12/22 10:42:20;;;;;;;2.43;1.03;;;;;;;;;;5025065;28;20207;-68
2023/12/22 10:44:49;;;;;;;3.13;1.10;;;;;;;;;;5027526;28;20208;-67
2023/12/22 10:47:16;;;;;;;2.70;1.00;;;;;;;;;;5028061;28;20214;-67
2023/12/22 10:49:43;;;;;;;1.70;1.20;;;;;;;;;;5028704;28;20208;-66
2023/12/22 10:52:17;;;;;;;2.93;1.27;;;;;;;;;;5029826;28;20223;-67
2023/12/22 10:54:44;;;;;;;1.97;0.90;;;;;;;;;;5027772;28;20235;-66
2023/12/22 10:57:13;;;;;;;4.13;1.00;;;;;;;;;;5016336;28;20215;-68
2023/12/22 10:59:42;;;;;;;2.73;0.80;;;;;;;;;;5025370;28;20200;-67
2023/12/22 11:02:10;;;;;;;2.10;0.70;;;;;;;;;;5026290;28;20211;-68
2023/12/22 11:04:38;;;;;;;1.53;0.80;;;;;;;;;;5027256;28;20208;-67
2023/12/22 11:07:06;;;;;;;2.73;0.77;;;;;;;;;;5025642;28;20204;-67
2023/12/22 11:09:33;;;;;;;2.47;0.90;;;;;;;;;;5031785;28;20304;-67
2023/12/22 11:12:01;;;;;;;2.10;0.80;;;;;;;;;;5031423;28;20628;-67
2023/12/22 11:14:30;;;;;;;1.73;0.70;;;;;;;;;;5036641;28;20202;-68
2023/12/22 11:16:59;;;;;;;1.90;0.80;;;;;;;;;;5029320;28;20199;-67
2023/12/22 11:19:27;;;;;;;1.63;0.70;;;;;;;;;;5034644;28;20212;-67
2023/12/22 11:21:54;;;;;;;1.87;0.70;;;;;;;;;;5030526;28;20196;-68
2023/12/22 11:24:22;;;;;;;0.87;0.60;;;;;;;;;;5031565;28;20197;-68
2023/12/22 11:26:51;;;;;;;0.57;0.43;;;;;;;;;;5031440;28;20214;-67
2023/12/22 11:29:20;;;;;;;0.80;0.50;;;;;;;;;;5034662;28;20206;-67
2023/12/22 11:31:49;;;;;;;0.90;0.40;;;;;;;;;;5034550;28;20215;-66
2023/12/22 11:34:16;;;;;;;0.57;0.50;;;;;;;;;;5033714;28;20199;-68
2023/12/22 11:36:44;;;;;;;0.60;0.60;;;;;;;;;;5030413;28;20204;-68
2023/12/22 11:39:11;;;;;;;1.00;0.60;;;;;;;;;;5032314;28;20214;-67
2023/12/22 11:41:41;;;;;;;0.60;0.60;;;;;;;;;;5028625;28;20206;-67
2023/12/22 11:44:09;;;;;;;1.53;0.70;;;;;;;;;;5033567;28;20250;-69
2023/12/22 11:46:36;;;;;;;1.60;1.00;;;;;;;;;;5026199;28;20227;-69
2023/12/22 11:49:05;;;;;;;0.60;0.50;;;;;;;;;;5024602;28;20236;-68
2023/12/22 11:51:34;;;;;;;0.53;0.50;;;;;;;;;;5029426;28;20232;-68
2023/12/22 11:54:01;;;;;;;1.87;0.80;;;;;;;;;;5028410;28;20200;-68
2023/12/22 11:56:30;;;;;;;0.83;0.83;;;;;;;;;;5024369;28;20223;-68
2023/12/22 11:58:58;;;;;;;1.70;1.00;;;;;;;;;;5026610;28;20227;-67
2023/12/22 12:01:28;;;;;;;1.17;0.77;;;;;;;;;;5025014;28;20263;-67
2023/12/22 12:03:55;;;;;;;2.40;1.97;;;;;;;;;;5024022;28;20211;-67
2023/12/22 12:06:36;;;;;;;1.50;0.70;;;;;;;;;;5023666;28;20210;-67
2023/12/22 12:09:05;;;;;;;0.60;0.40;;;;;;;;;;5022938;28;20303;-68
2023/12/22 12:11:51;;;;;;;0.70;0.40;;;;;;;;;;5028785;28;20458;-65
2023/12/22 12:14:23;;;;;;;1.40;0.70;;;;;;;;;;5023253;28;20204;-69
2023/12/22 12:16:50;;;;;;;1.47;0.80;;;;;;;;;;5021947;28;20201;-68
2023/12/22 12:19:17;;;;;;;0.87;0.53;;;;;;;;;;5020584;28;20315;-68
2023/12/22 12:21:46;;;;;;;1.00;0.60;;;;;;;;;;5026743;28;20200;-67
2023/12/22 12:24:13;;;;;;;1.83;0.60;;;;;;;;;;5025493;28;20213;-67
2023/12/22 12:26:40;;;;;;;1.10;0.60;;;;;;;;;;5023795;28;20296;-68
2023/12/22 12:29:08;;;;;;;1.37;0.70;;;;;;;;;;5024572;28;20239;-67
2023/12/22 12:31:38;;;;;;;0.60;0.50;;;;;;;;;;5024009;28;20224;-67
2023/12/22 12:34:05;;;;;;;1.40;0.77;;;;;;;;;;5024738;28;20299;-67
2023/12/22 12:36:33;;;;;;;1.77;0.80;;;;;;;;;;5025871;28;20207;-67
2023/12/22 12:39:08;;;;;;;0.57;0.57;;;;;;;;;;5029146;28;20207;-68
2023/12/22 12:41:37;;;;;;;1.50;0.80;;;;;;;;;;5033593;28;20203;-67
2023/12/22 12:44:05;;;;;;;1.83;0.70;;;;;;;;;;5036672;28;20206;-67
2023/12/22 12:46:35;;;;;;;0.70;0.60;;;;;;;;;;5038490;28;20283;-67
2023/12/22 12:49:06;;;;;;;1.00;0.90;;;;;;;;;;5041789;28;20204;-67
2023/12/22 12:51:37;;;;;;;2.17;0.90;;;;;;;;;;5035746;28;20270;-67
2023/12/22 12:54:06;;;;;;;1.20;0.50;;;;;;;;;;5024239;28;20211;-67
2023/12/22 12:56:37;;;;;;;1.63;0.90;;;;;;;;;;5028908;28;20196;-67
2023/12/22 12:59:08;;;;;;;2.27;0.90;;;;;;;;;;5025086;28;20217;-67
2023/12/22 13:01:39;;;;;;;0.50;0.50;;;;;;;;;;5030317;28;20203;-68
2023/12/22 13:04:06;;;;;;;1.70;0.70;;;;;;;;;;5026829;28;20211;-67
2023/12/22 13:06:32;;;;;;;2.37;0.63;;;;;;;;;;5024161;28;20204;-67
2023/12/22 13:08:59;;;;;;;1.10;0.73;;;;;;;;;;5028088;28;20195;-66
2023/12/22 13:11:29;;;;;;;1.80;0.67;;;;;;;;;;5029853;28;20212;-67
2023/12/22 13:13:56;;;;;;;1.40;0.53;;;;;;;;;;5028829;28;20302;-67
2023/12/22 13:16:26;;;;;;;1.03;0.70;;;;;;;;;;5032125;28;20226;-68
2023/12/22 13:18:53;;;;;;;0.97;0.70;;;;;;;;;;5033140;28;20196;-67
2023/12/22 13:21:21;;;;;;;0.60;0.50;;;;;;;;;;5032077;28;20204;-67
2023/12/22 13:23:48;;;;;;;1.37;0.80;;;;;;;;;;5017638;28;20211;-68
2023/12/22 13:26:21;;;;;;;2.17;1.20;;;;;;;;;;5026563;28;20196;-68
2023/12/22 13:28:49;;;;;;;0.70;0.70;;;;;;;;;;5025060;28;20220;-67
2023/12/22 13:31:18;;;;;;;1.10;0.73;;;;;;;;;;5013147;28;20211;-67
2023/12/22 13:33:45;;;;;;;1.70;0.90;;;;;;;;;;5013591;28;20319;-67
2023/12/22 13:36:13;;;;;;;0.87;0.70;;;;;;;;;;5011044;28;20251;-67
2023/12/22 13:38:40;;;;;;;1.07;0.50;;;;;;;;;;5016899;28;20215;-66
2023/12/22 13:41:09;;;;;;;1.23;0.70;;;;;;;;;;5012469;28;22339;-66
2023/12/22 13:43:36;;;;;;;0.90;0.70;;;;;;;;;;5006141;28;20203;-66
2023/12/22 13:46:06;;;;;;;2.03;0.80;;;;;;;;;;5010188;28;20542;-66
2023/12/22 13:48:35;;;;;;;0.53;0.50;;;;;;;;;;5011181;28;20203;-67
2023/12/22 13:51:03;;;;;;;1.43;0.60;;;;;;;;;;5010919;28;20208;-67
2023/12/22 13:53:30;;;;;;;1.00;0.70;;;;;;;;;;5017479;28;20224;-67
2023/12/22 13:55:57;;;;;;;0.93;0.70;;;;;;;;;;5024945;28;20227;-67
2023/12/22 13:58:25;;;;;;;0.60;0.60;;;;;;;;;;5025934;28;20208;-67
2023/12/22 14:00:52;;;;;;;2.00;0.83;;;;;;;;;;5033072;28;20200;-67
2023/12/22 14:03:21;;;;;;;0.53;0.37;;;;;;;;;;5031898;28;20322;-67
2023/12/22 14:05:48;;;;;;;0.90;0.50;;;;;;;;;;5030432;28;20245;-66
2023/12/22 14:08:15;;;;;;;0.73;0.60;;;;;;;;;;5029465;28;20274;-68
2023/12/22 14:10:46;;;;;;;2.33;0.80;;;;;;;;;;5032919;28;20210;-67
2023/12/22 14:13:13;;;;;;;0.50;0.50;;;;;;;;;;5032932;28;20216;-67
2023/12/22 14:15:40;;;;;;;1.17;0.90;;;;;;;;;;5034275;28;20205;-68
2023/12/22 14:18:08;;;;;;;0.57;0.50;;;;;;;;;;5031435;28;20203;-66
2023/12/22 14:20:36;;;;;;;2.00;0.50;;;;;;;;;;5037611;28;20202;-66
2023/12/22 14:23:03;;;;;;;0.60;0.60;;;;;;;;;;5030035;28;20247;-66
2023/12/22 14:25:31;;;;;;;0.87;0.57;;;;;;;;;;5029541;28;20211;-67
2023/12/22 14:27:59;;;;;;;0.60;0.60;;;;;;;;;;5032051;28;20200;-66
2023/12/22 14:30:26;;;;;;;0.80;0.60;;;;;;;;;;5036819;28;20208;-67
2023/12/22 14:32:55;;;;;;;2.83;0.70;;;;;;;;;;5028565;28;20218;-66
2023/12/22 14:35:22;;;;;;;2.60;2.00;;;;;;;;;;5031418;28;20711;-67
2023/12/22 14:37:51;;;;;;;1.53;1.30;;;;;;;;;;5028130;28;20199;-66
2023/12/22 14:40:18;;;;;;;1.47;0.90;;;;;;;;;;5025598;28;20210;-67
2023/12/22 14:42:45;;;;;;;1.27;1.10;;;;;;;;;;5023197;28;20235;-67
2023/12/22 14:45:12;;;;;;;1.27;0.90;;;;;;;;;;5026903;28;20215;-66